METAR Data
IDs: Format: Raw Decoded Include TAF

Data at: 2029 UTC 14 Dec 2018

KINJ 142015Z AUTO 32017G24KT 10SM OVC013 08/06 A2998 RMK AO2 T00750060
KINJ 141955Z AUTO 32016G24KT 10SM OVC013 08/06 A2997 RMK AO2 T00750059
KINJ 141935Z AUTO 32021G26KT 10SM OVC013 07/06 A2998 RMK AO2 T00730055
KINJ 141915Z AUTO 32020G24KT 10SM OVC013 07/06 A2998 RMK AO2 T00700056
KINJ 141855Z AUTO 31019G26KT 10SM OVC013 07/06 A2998 RMK AO2 T00690058
KINJ 141835Z AUTO 31018G26KT 10SM OVC013 07/06 A2998 RMK AO2 T00700055
KINJ 141815Z AUTO 32021G27KT 10SM OVC013 07/06 A2998 RMK AO2 T00700055
KINJ 141755Z AUTO 32021G26KT 10SM OVC013 07/06 A2999 RMK AO2 T00710055 10071 20055
KINJ 141735Z AUTO 32019G25KT 10SM OVC013 07/06 A2999 RMK AO2 T00700055
KINJ 141715Z AUTO 31015G22KT 7SM OVC011 06/06 A3000 RMK AO2 T00640056
KINJ 141655Z AUTO 32016G20KT 10SM OVC011 06/06 A3000 RMK AO2 T00630055
KINJ 141635Z AUTO 32017G22KT 10SM OVC011 06/06 A3000 RMK AO2 T00600055
KINJ 141615Z AUTO 32016G22KT 10SM OVC011 06/05 A3000 RMK AO2 T00600052
KINJ 141555Z AUTO 32014G24KT 10SM OVC011 06/05 A2999 RMK AO2 T00600053
KINJ 141535Z AUTO 32017G24KT 10SM OVC011 06/06 A2998 RMK AO2 T00580055
KINJ 141515Z AUTO 32015KT 10SM OVC009 06/06 A2998 RMK AO2 T00560056
KINJ 141455Z AUTO 31019G23KT 7SM OVC009 06/06 A2997 RMK AO2 LTG DSNT NE AND E T00550055
KINJ 141435Z AUTO 32014G22KT 7SM OVC009 06/06 A2997 RMK AO2 LTG DSNT NE T00550055
KINJ 141415Z AUTO 31014G22KT 7SM OVC007 06/06 A2996 RMK AO2 T00550055
KINJ 141355Z AUTO 30018G23KT 5SM BR OVC007 06/06 A2994 RMK AO2 T00550055
KINJ 141335Z AUTO 31019G24KT 3SM BR OVC007 06/06 A2993 RMK AO2 LTG DSNT NE T00560056
KINJ 141315Z AUTO 31017KT 3SM BR OVC007 06/06 A2993 RMK AO2 LTG DSNT E T00580058
KINJ 141255Z AUTO 32016G24KT 4SM BR OVC007 06/06 A2992 RMK AO2 LTG DSNT NE T00600060
KINJ 141235Z AUTO 31015G20KT 4SM BR OVC007 06/06 A2991 RMK AO2 T00610061
KINJ 141215Z AUTO 31015G23KT 3SM BR OVC009 06/06 A2990 RMK AO2 LTG DSNT NE T00630063
KINJ 141155Z AUTO 31018G23KT 5SM BR OVC011 07/07 A2989 RMK AO2 LTG DSNT NE 70003 T00650065 10075 20065
KINJ 141135Z AUTO 31016G20KT 5SM BR OVC011 07/07 A2988 RMK AO2 T00670067
KINJ 141115Z AUTO 32017G23KT 5SM BR OVC011 07/07 A2987 RMK AO2 T00700070
KINJ 141055Z AUTO 33019KT 10SM OVC011 07/07 A2987 RMK AO2 T00700070
KINJ 141035Z AUTO 32013G20KT 10SM OVC011 07/07 A2986 RMK AO2 LTG DSNT NE T00720072
KINJ 141015Z AUTO 32016KT 10SM OVC011 07/07 A2986 RMK AO2 LTG DSNT NE T00730071
KINJ 140955Z AUTO 32016G21KT 10SM OVC011 07/07 A2985 RMK AO2 T00730070
KINJ 140935Z AUTO 32014G18KT 10SM OVC011 07/07 A2985 RMK AO2 T00730071
KINJ 140915Z AUTO 32014G22KT 10SM OVC011 07/07 A2983 RMK AO2 LTG DSNT E T00720071
KINJ 140855Z AUTO 32014G18KT 10SM OVC009 07/07 A2983 RMK AO2 LTG DSNT NE T00710071
KINJ 140835Z AUTO 32014G19KT 10SM OVC007 07/07 A2982 RMK AO2 T00710071
KINJ 140815Z AUTO 32015G20KT 10SM OVC007 07/07 A2982 RMK AO2 T00720072
KINJ 140755Z AUTO 33013G21KT 7SM -DZ OVC007 07/07 A2981 RMK AO2 T00720072
KINJ 140735Z AUTO 33012G19KT 5SM BR OVC007 07/07 A2981 RMK AO2 T00730073
KINJ 140715Z AUTO 33014KT 10SM OVC005 07/07 A2980 RMK AO2 T00730073
KINJ 140655Z AUTO 33013G17KT 3SM DZ OVC005 07/07 A2980 RMK AO2 T00730073
KINJ 140635Z AUTO 32011G16KT 3SM DZ OVC005 07/07 A2980 RMK AO2 T00740074
KINJ 140615Z AUTO 33013G19KT 4SM -DZ OVC005 08/08 A2979 RMK AO2 T00750075
KINJ 140555Z AUTO 33012KT 3SM DZ OVC005 08/08 A2978 RMK AO2 T00750075 10100 20075 401910075
KINJ 140535Z AUTO 32011G15KT 3SM DZ OVC005 08/08 A2978 RMK AO2 T00750075
KINJ 140515Z AUTO 33012G16KT 2 1/2SM DZ OVC005 08/08 A2979 RMK AO2 T00750075
KINJ 140455Z AUTO 33009KT 2 1/2SM RA OVC009 08/08 A2979 RMK AO2 T00760076
KINJ 140435Z AUTO 32010KT 10SM OVC011 08/07 A2979 RMK AO2 T00800074
KINJ 140415Z AUTO 33010KT 10SM OVC011 08/07 A2977 RMK AO2 T00800071
KINJ 140355Z AUTO 34011KT 10SM OVC011 08/07 A2977 RMK AO2 T00810070
KINJ 140335Z AUTO 35010KT 10SM OVC011 08/07 A2976 RMK AO2 T00820071
KINJ 140315Z AUTO 34010KT 10SM OVC011 08/07 A2976 RMK AO2 T00810070
KINJ 140255Z AUTO 33011G17KT 10SM OVC011 08/07 A2976 RMK AO2 T00810069
KINJ 140235Z AUTO 33011G16KT 10SM OVC011 08/07 A2977 RMK AO2 T00830072
KINJ 140215Z AUTO 33009KT 10SM OVC011 09/08 A2976 RMK AO2 T00870075
KINJ 140155Z AUTO 32007KT 10SM BKN011 OVC018 09/08 A2976 RMK AO2 T00900082
KINJ 140135Z AUTO 29007KT 10SM SCT013 BKN018 OVC023 09/08 A2976 RMK AO2 T00910084
KINJ 140115Z AUTO 29009KT 10SM SCT013 OVC022 09/09 A2976 RMK AO2 T00940087
KINJ 140055Z AUTO 27010KT 10SM VCTS OVC024 10/09 A2975 RMK AO2 T00950087
KINJ 140035Z AUTO 28008KT 10SM SCT011 OVC024 10/09 A2976 RMK AO2 T00970087
KINJ 140015Z AUTO 28007KT 10SM BKN013 OVC024 10/09 A2976 RMK AO2 LTG DSNT NE T00980089
KINJ 132355Z AUTO 29006KT 10SM BKN013 BKN018 10/09 A2975 RMK AO2 LTG DSNT N T01000090 10191 20097
KINJ 132335Z AUTO 27008KT 10SM SCT018 10/08 A2974 RMK AO2 LTG DSNT NE T01010083
KINJ 132315Z AUTO 26012G18KT 10SM CLR 11/08 A2974 RMK AO2 T01090079
KINJ 132255Z AUTO 26011G15KT 10SM SCT025 12/08 A2974 RMK AO2 T01170082
KINJ 132235Z AUTO 26019G22KT 10SM SCT025 13/08 A2974 RMK AO2 T01260081
KINJ 132215Z AUTO 25016G19KT 10SM SCT037 14/08 A2971 RMK AO2 LTG DSNT N T01370077
KINJ 132155Z AUTO 24018G21KT 10SM SCT035 SCT110 15/08 A2971 RMK AO2 LTG DSNT N T01510084
KINJ 132135Z AUTO 24014G17KT 10SM SCT100 SCT120 16/08 A2969 RMK AO2 LTG DSNT N AND NE T01600076
KINJ 132115Z AUTO 24012G16KT 10SM SCT100 BKN120 16/08 A2968 RMK AO2 LTG DSNT N AND NW T01550075
KINJ 132055Z AUTO 24010KT 10SM BKN100 BKN120 16/08 A2967 RMK AO2 LTG DSNT NW THRU NE T01560082
KINJ 132035Z AUTO 24009KT 10SM BKN100 BKN120 16/09 A2966 RMK AO2 LTG DSNT NW THRU NE T01590090
KINJ 132015Z AUTO 24012KT 10SM SCT100 BKN110 17/10 A2966 RMK AO2 LTG DSNT N T01690096
KINJ 131955Z AUTO 24012KT 10SM BKN090 BKN120 17/10 A2967 RMK AO2 LTG DSNT N T01650100
KINJ 131935Z AUTO 25011KT 10SM OVC090 16/11 A2967 RMK AO2 LTG DSNT N AND NW T01620105
KINJ 131915Z AUTO 25011KT 10SM SCT035 OVC090 17/11 A2966 RMK AO2 LTG DSNT N AND E T01700108
KINJ 131855Z AUTO 24009KT 10SM BKN033 OVC080 18/11 A2966 RMK AO2 LTG DSNT N T01750112
KINJ 131835Z AUTO 24010G17KT 10SM SCT031 BKN080 BKN100 19/13 A2966 RMK AO2 T01880125
KINJ 131815Z AUTO 22011KT 10SM SCT090 BKN110 19/12 A2967 RMK AO2 LTG DSNT N T01870122
KINJ 131755Z AUTO 21013G16KT 10SM BKN110 19/13 A2967 RMK AO2 60003 T01880128 10189 20157
KINJ 131735Z AUTO 21010KT 10SM SCT022 SCT027 OVC110 19/13 A2968 RMK AO2 T01880134
KINJ 131715Z AUTO 19009KT 10SM SCT022 SCT031 BKN110 19/14 A2969 RMK AO2 T01870141
KINJ 131655Z AUTO 19009KT 10SM SCT013 SCT020 SCT027 19/16 A2969 RMK AO2 LTG DSNT N T01860160
KINJ 131635Z AUTO 18009KT 10SM BKN011 BKN019 18/17 A2970 RMK AO2 T01840166
KINJ 131615Z AUTO 16011KT 10SM OVC009 18/17 A2970 RMK AO2 T01810174
KINJ 131555Z AUTO 16011KT 10SM OVC009 18/18 A2970 RMK AO2 T01770177
KINJ 131535Z AUTO 16008KT 7SM OVC005 17/17 A2971 RMK AO2 T01730173
KINJ 131515Z AUTO 15009KT 7SM OVC005 17/17 A2971 RMK AO2 LTG DSNT N T01700170
KINJ 131455Z AUTO 15009KT 5SM -RA OVC005 17/17 A2971 RMK AO2 P0001 60003 T01660166
KINJ 131435Z AUTO 16010KT 5SM BR SCT005 BKN023 OVC095 17/17 A2971 RMK AO2 P0001 T01650165
KINJ 131415Z AUTO 15008KT 5SM -RA SCT005 BKN020 OVC095 16/16 A2970 RMK AO2 P0001 T01630163
KINJ 131355Z AUTO 16008KT 4SM RA BKN005 BKN011 OVC021 16/16 A2971 RMK AO2 P0002 T01620162
KINJ 131335Z AUTO 15010KT 5SM DZ OVC005 16/16 A2970 RMK AO2 LTG DSNT N T01620162
KINJ 131315Z AUTO 15010KT 7SM BKN005 BKN022 BKN110 16/16 A2969 RMK AO2 T01600160
KINJ 131255Z AUTO 14008KT 7SM SCT022 BKN110 16/16 A2969 RMK AO2 T01570157
KINJ 131235Z AUTO 14006KT 7SM CLR 16/16 A2968 RMK AO2 T01570157
KINJ 131215Z AUTO 14007KT 5SM BR SCT007 SCT012 SCT018 16/16 A2969 RMK AO2 T01570157
KINJ 131155Z AUTO 16005KT 5SM BR BKN005 BKN012 OVC017 16/16 A2969 RMK AO2 LTG DSNT NE T01620162 10170 20162
KINJ 131135Z AUTO 16007KT 4SM BR OVC005 17/17 A2968 RMK AO2 T01650165
KINJ 131115Z AUTO 18004KT 5SM BR OVC005 17/17 A2968 RMK AO2 LTG DSNT E T01650165
KINJ 131055Z AUTO 19004KT 5SM BR OVC005 17/17 A2969 RMK AO2 LTG DSNT N AND NE T01650165
KINJ 131035Z AUTO 17007KT 5SM BR OVC005 17/17 A2968 RMK AO2 LTG DSNT N AND E T01660166
KINJ 131015Z AUTO 18008KT 4SM BR OVC003 17/17 A2969 RMK AO2 LTG DSNT NE AND E T01660166
KINJ 130955Z AUTO 18008KT 4SM BR OVC003 17/17 A2970 RMK AO2 LTG DSNT NE AND NW T01670167
KINJ 130935Z AUTO 18009KT 4SM BR OVC005 17/17 A2971 RMK AO2 LTG DSNT NE AND SE T01680168
KINJ 130915Z AUTO 18008KT 5SM VCTS BR OVC005 17/17 A2973 RMK AO2 LTG DSNT NE AND SE T01680168
KINJ 130855Z AUTO 17007KT 7SM OVC005 17/17 A2974 RMK AO2 LTG DSNT NE SE AND NW T01680168
KINJ 130835Z AUTO 19010G14KT 7SM -RA OVC005 17/17 A2975 RMK AO2 LTG DSNT NE T01680168